sensor_id;sensor_type;location;lat;lon;timestamp;temperature;humidity
420;DHT22;42600;54.408;13.016;2024-01-16T00:57:09;-2.70;90.90
420;DHT22;42600;54.408;13.016;2024-01-16T01:03:14;-2.80;90.90
420;DHT22;42600;54.408;13.016;2024-01-16T01:05:42;-2.80;90.60
420;DHT22;42600;54.408;13.016;2024-01-16T01:08:09;-2.80;91.00
420;DHT22;42600;54.408;13.016;2024-01-16T01:10:35;-2.80;90.30
420;DHT22;42600;54.408;13.016;2024-01-16T01:13:02;-2.80;89.70
420;DHT22;42600;54.408;13.016;2024-01-16T01:15:28;-2.80;90.60
420;DHT22;42600;54.408;13.016;2024-01-16T01:17:55;-2.80;90.80
420;DHT22;42600;54.408;13.016;2024-01-16T01:20:21;-2.90;90.30
420;DHT22;42600;54.408;13.016;2024-01-16T01:22:49;-2.90;90.20
420;DHT22;42600;54.408;13.016;2024-01-16T01:25:16;-2.90;89.30
420;DHT22;42600;54.408;13.016;2024-01-16T01:27:43;-2.90;89.60
420;DHT22;42600;54.408;13.016;2024-01-16T01:30:10;-2.90;90.20
420;DHT22;42600;54.408;13.016;2024-01-16T01:32:37;-2.90;90.10
420;DHT22;42600;54.408;13.016;2024-01-16T01:35:04;-2.90;89.60
420;DHT22;42600;54.408;13.016;2024-01-16T01:37:31;-3.00;88.50
420;DHT22;42600;54.408;13.016;2024-01-16T01:39:59;-3.00;88.50
420;DHT22;42600;54.408;13.016;2024-01-16T01:42:25;-3.00;88.10
420;DHT22;42600;54.408;13.016;2024-01-16T01:44:52;-3.00;88.00
420;DHT22;42600;54.408;13.016;2024-01-16T01:47:19;-2.90;88.50
420;DHT22;42600;54.408;13.016;2024-01-16T01:49:46;-2.90;88.50
420;DHT22;42600;54.408;13.016;2024-01-16T01:52:13;-2.90;89.50
420;DHT22;42600;54.408;13.016;2024-01-16T01:54:40;-2.80;90.60
420;DHT22;42600;54.408;13.016;2024-01-16T01:57:09;-2.80;90.70
420;DHT22;42600;54.408;13.016;2024-01-16T01:59:35;-2.80;90.20
420;DHT22;42600;54.408;13.016;2024-01-16T02:02:03;-2.80;90.30
420;DHT22;42600;54.408;13.016;2024-01-16T02:04:31;-2.80;90.30
420;DHT22;42600;54.408;13.016;2024-01-16T02:06:58;-2.80;90.60
420;DHT22;42600;54.408;13.016;2024-01-16T02:09:24;-2.80;89.50
420;DHT22;42600;54.408;13.016;2024-01-16T02:11:51;-2.80;88.10
420;DHT22;42600;54.408;13.016;2024-01-16T02:14:19;-2.80;88.40
420;DHT22;42600;54.408;13.016;2024-01-16T02:16:45;-2.80;88.30
420;DHT22;42600;54.408;13.016;2024-01-16T02:19:12;-2.70;89.50
420;DHT22;42600;54.408;13.016;2024-01-16T02:21:39;-2.70;90.20
420;DHT22;42600;54.408;13.016;2024-01-16T02:24:10;-2.70;90.10
420;DHT22;42600;54.408;13.016;2024-01-16T02:26:37;-2.70;89.10
420;DHT22;42600;54.408;13.016;2024-01-16T02:29:04;-2.70;89.60
420;DHT22;42600;54.408;13.016;2024-01-16T02:31:31;-2.70;89.70
420;DHT22;42600;54.408;13.016;2024-01-16T02:33:57;-2.70;88.80
420;DHT22;42600;54.408;13.016;2024-01-16T02:36:24;-2.70;88.70
420;DHT22;42600;54.408;13.016;2024-01-16T02:38:51;-2.70;88.90
420;DHT22;42600;54.408;13.016;2024-01-16T02:41:19;-2.70;89.30
420;DHT22;42600;54.408;13.016;2024-01-16T02:43:46;-2.60;90.20
420;DHT22;42600;54.408;13.016;2024-01-16T02:46:12;-2.60;91.00
420;DHT22;42600;54.408;13.016;2024-01-16T02:48:39;-2.60;91.50
420;DHT22;42600;54.408;13.016;2024-01-16T02:51:08;-2.60;91.00
420;DHT22;42600;54.408;13.016;2024-01-16T02:53:34;-2.60;90.60
420;DHT22;42600;54.408;13.016;2024-01-16T02:56:01;-2.60;90.60
420;DHT22;42600;54.408;13.016;2024-01-16T02:58:30;-2.60;90.90
420;DHT22;42600;54.408;13.016;2024-01-16T03:00:57;-2.50;91.80
420;DHT22;42600;54.408;13.016;2024-01-16T03:03:23;-2.60;92.50
420;DHT22;42600;54.408;13.016;2024-01-16T03:05:50;-2.60;92.40
420;DHT22;42600;54.408;13.016;2024-01-16T03:08:17;-2.60;92.70
420;DHT22;42600;54.408;13.016;2024-01-16T03:10:43;-2.60;92.70
420;DHT22;42600;54.408;13.016;2024-01-16T03:13:10;-2.60;92.70
420;DHT22;42600;54.408;13.016;2024-01-16T03:15:38;-2.60;92.70
420;DHT22;42600;54.408;13.016;2024-01-16T03:18:06;-2.50;92.70
420;DHT22;42600;54.408;13.016;2024-01-16T03:20:33;-2.50;92.70
420;DHT22;42600;54.408;13.016;2024-01-16T03:22:59;-2.50;92.70
420;DHT22;42600;54.408;13.016;2024-01-16T03:25:26;-2.50;92.70
420;DHT22;42600;54.408;13.016;2024-01-16T03:27:52;-2.50;92.70
420;DHT22;42600;54.408;13.016;2024-01-16T03:30:19;-2.40;92.70
420;DHT22;42600;54.408;13.016;2024-01-16T03:32:48;-2.40;92.70
420;DHT22;42600;54.408;13.016;2024-01-16T03:35:15;-2.40;92.70
420;DHT22;42600;54.408;13.016;2024-01-16T03:37:41;-2.40;92.70
420;DHT22;42600;54.408;13.016;2024-01-16T03:40:09;-2.40;92.70
420;DHT22;42600;54.408;13.016;2024-01-16T03:42:37;-2.40;92.70
420;DHT22;42600;54.408;13.016;2024-01-16T03:45:06;-2.40;92.70
420;DHT22;42600;54.408;13.016;2024-01-16T03:47:33;-2.40;92.70
420;DHT22;42600;54.408;13.016;2024-01-16T03:50:01;-2.40;92.70
420;DHT22;42600;54.408;13.016;2024-01-16T03:52:28;-2.30;92.70
420;DHT22;42600;54.408;13.016;2024-01-16T03:54:54;-2.30;92.70
420;DHT22;42600;54.408;13.016;2024-01-16T03:57:21;-2.30;92.70
420;DHT22;42600;54.408;13.016;2024-01-16T03:59:48;-2.30;92.70
420;DHT22;42600;54.408;13.016;2024-01-16T04:02:15;-2.30;92.70
420;DHT22;42600;54.408;13.016;2024-01-16T04:04:41;-2.30;92.70
420;DHT22;42600;54.408;13.016;2024-01-16T04:07:09;-2.30;92.70
420;DHT22;42600;54.408;13.016;2024-01-16T04:09:36;-2.30;92.70
420;DHT22;42600;54.408;13.016;2024-01-16T04:12:03;-2.30;92.70
420;DHT22;42600;54.408;13.016;2024-01-16T04:14:29;-2.30;92.70
420;DHT22;42600;54.408;13.016;2024-01-16T04:16:56;-2.20;92.70
420;DHT22;42600;54.408;13.016;2024-01-16T04:19:22;-2.20;92.70
420;DHT22;42600;54.408;13.016;2024-01-16T04:21:49;-2.20;92.70
420;DHT22;42600;54.408;13.016;2024-01-16T04:24:17;-2.20;92.70
420;DHT22;42600;54.408;13.016;2024-01-16T04:26:43;-2.20;92.70
420;DHT22;42600;54.408;13.016;2024-01-16T04:29:10;-2.20;92.70
420;DHT22;42600;54.408;13.016;2024-01-16T04:31:39;-2.10;92.70
420;DHT22;42600;54.408;13.016;2024-01-16T04:34:06;-2.20;92.70
420;DHT22;42600;54.408;13.016;2024-01-16T04:36:32;-2.30;92.70
420;DHT22;42600;54.408;13.016;2024-01-16T04:38:59;-2.30;92.70
420;DHT22;42600;54.408;13.016;2024-01-16T04:41:27;-2.30;92.70
420;DHT22;42600;54.408;13.016;2024-01-16T04:43:53;-2.40;92.70
420;DHT22;42600;54.408;13.016;2024-01-16T04:46:20;-2.50;92.70
420;DHT22;42600;54.408;13.016;2024-01-16T04:48:46;-2.50;92.70
420;DHT22;42600;54.408;13.016;2024-01-16T04:51:13;-2.50;92.70
420;DHT22;42600;54.408;13.016;2024-01-16T04:53:40;-2.50;92.70
420;DHT22;42600;54.408;13.016;2024-01-16T04:56:06;-2.50;92.70
420;DHT22;42600;54.408;13.016;2024-01-16T04:58:34;-2.60;92.70
420;DHT22;42600;54.408;13.016;2024-01-16T05:01:01;-2.60;92.70
420;DHT22;42600;54.408;13.016;2024-01-16T05:03:28;-2.60;92.70
420;DHT22;42600;54.408;13.016;2024-01-16T05:05:54;-2.60;92.70
420;DHT22;42600;54.408;13.016;2024-01-16T05:08:22;-2.60;92.70
420;DHT22;42600;54.408;13.016;2024-01-16T05:10:49;-2.60;92.70
420;DHT22;42600;54.408;13.016;2024-01-16T05:13:16;-2.60;92.70
420;DHT22;42600;54.408;13.016;2024-01-16T05:15:44;-2.60;92.70
420;DHT22;42600;54.408;13.016;2024-01-16T05:18:10;-2.50;92.70
420;DHT22;42600;54.408;13.016;2024-01-16T05:20:37;-2.50;92.70
420;DHT22;42600;54.408;13.016;2024-01-16T05:23:03;-2.50;92.70
420;DHT22;42600;54.408;13.016;2024-01-16T05:25:31;-2.50;92.70
420;DHT22;42600;54.408;13.016;2024-01-16T05:27:57;-2.40;92.70
420;DHT22;42600;54.408;13.016;2024-01-16T05:30:24;-2.40;92.70
420;DHT22;42600;54.408;13.016;2024-01-16T05:32:52;-2.40;92.70
420;DHT22;42600;54.408;13.016;2024-01-16T05:35:19;-2.40;92.70
420;DHT22;42600;54.408;13.016;2024-01-16T05:37:45;-2.40;92.70
420;DHT22;42600;54.408;13.016;2024-01-16T05:40:12;-2.30;92.70
420;DHT22;42600;54.408;13.016;2024-01-16T05:42:38;-2.40;92.70
420;DHT22;42600;54.408;13.016;2024-01-16T05:45:06;-2.40;92.70
420;DHT22;42600;54.408;13.016;2024-01-16T05:47:32;-2.40;92.70
420;DHT22;42600;54.408;13.016;2024-01-16T05:50:00;-2.40;92.70
420;DHT22;42600;54.408;13.016;2024-01-16T05:52:27;-2.30;92.70
420;DHT22;42600;54.408;13.016;2024-01-16T05:54:53;-2.30;92.70
420;DHT22;42600;54.408;13.016;2024-01-16T05:57:22;-2.30;92.70
420;DHT22;42600;54.408;13.016;2024-01-16T05:59:49;-2.30;92.70
420;DHT22;42600;54.408;13.016;2024-01-16T06:02:15;-2.30;92.70
420;DHT22;42600;54.408;13.016;2024-01-16T06:04:42;-2.30;92.70
420;DHT22;42600;54.408;13.016;2024-01-16T06:07:10;-2.30;92.70
420;DHT22;42600;54.408;13.016;2024-01-16T06:09:38;-2.30;92.70
420;DHT22;42600;54.408;13.016;2024-01-16T06:12:06;-2.30;92.70
420;DHT22;42600;54.408;13.016;2024-01-16T06:14:33;-2.30;92.70
420;DHT22;42600;54.408;13.016;2024-01-16T06:17:00;-2.20;92.70
420;DHT22;42600;54.408;13.016;2024-01-16T06:19:28;-2.20;92.70
420;DHT22;42600;54.408;13.016;2024-01-16T06:21:55;-2.20;92.70
420;DHT22;42600;54.408;13.016;2024-01-16T06:24:23;-2.20;92.70
420;DHT22;42600;54.408;13.016;2024-01-16T06:26:50;-2.20;92.70
420;DHT22;42600;54.408;13.016;2024-01-16T06:29:16;-2.20;92.70
420;DHT22;42600;54.408;13.016;2024-01-16T06:31:43;-2.30;92.70
420;DHT22;42600;54.408;13.016;2024-01-16T06:34:10;-2.30;92.70
420;DHT22;42600;54.408;13.016;2024-01-16T06:36:36;-2.30;92.70
420;DHT22;42600;54.408;13.016;2024-01-16T06:39:03;-2.30;92.70
420;DHT22;42600;54.408;13.016;2024-01-16T06:41:31;-2.30;92.70
420;DHT22;42600;54.408;13.016;2024-01-16T06:43:57;-2.30;92.70
420;DHT22;42600;54.408;13.016;2024-01-16T06:46:24;-2.30;92.70
420;DHT22;42600;54.408;13.016;2024-01-16T06:48:50;-2.30;92.70
420;DHT22;42600;54.408;13.016;2024-01-16T06:51:17;-2.30;92.70
420;DHT22;42600;54.408;13.016;2024-01-16T06:53:44;-2.40;92.70
420;DHT22;42600;54.408;13.016;2024-01-16T06:56:10;-2.40;92.70
420;DHT22;42600;54.408;13.016;2024-01-16T06:58:38;-2.40;92.70
420;DHT22;42600;54.408;13.016;2024-01-16T07:01:05;-2.50;92.70
420;DHT22;42600;54.408;13.016;2024-01-16T07:03:34;-2.50;92.70
420;DHT22;42600;54.408;13.016;2024-01-16T07:06:00;-2.50;92.70
420;DHT22;42600;54.408;13.016;2024-01-16T07:08:27;-2.50;92.70
420;DHT22;42600;54.408;13.016;2024-01-16T07:10:54;-2.60;92.70
420;DHT22;42600;54.408;13.016;2024-01-16T07:13:21;-2.60;92.70
420;DHT22;42600;54.408;13.016;2024-01-16T07:15:49;-2.60;92.70
420;DHT22;42600;54.408;13.016;2024-01-16T07:18:16;-2.60;92.70
420;DHT22;42600;54.408;13.016;2024-01-16T07:20:43;-2.60;92.70
420;DHT22;42600;54.408;13.016;2024-01-16T07:23:11;-2.70;92.70
420;DHT22;42600;54.408;13.016;2024-01-16T07:25:37;-2.70;92.70
420;DHT22;42600;54.408;13.016;2024-01-16T07:28:05;-2.70;92.70
420;DHT22;42600;54.408;13.016;2024-01-16T07:30:32;-2.70;92.70
420;DHT22;42600;54.408;13.016;2024-01-16T07:32:59;-2.70;92.70
420;DHT22;42600;54.408;13.016;2024-01-16T07:35:26;-2.70;92.70
420;DHT22;42600;54.408;13.016;2024-01-16T07:37:53;-2.70;92.70
420;DHT22;42600;54.408;13.016;2024-01-16T07:40:19;-2.70;92.70
420;DHT22;42600;54.408;13.016;2024-01-16T07:42:46;-2.70;92.70
420;DHT22;42600;54.408;13.016;2024-01-16T07:45:13;-2.70;92.70
420;DHT22;42600;54.408;13.016;2024-01-16T07:47:39;-2.70;92.70
420;DHT22;42600;54.408;13.016;2024-01-16T07:50:09;-2.70;92.70
420;DHT22;42600;54.408;13.016;2024-01-16T07:52:35;-2.70;92.70
420;DHT22;42600;54.408;13.016;2024-01-16T07:55:02;-2.70;92.70
420;DHT22;42600;54.408;13.016;2024-01-16T07:57:29;-2.70;92.70
420;DHT22;42600;54.408;13.016;2024-01-16T07:59:55;-2.70;92.70
420;DHT22;42600;54.408;13.016;2024-01-16T08:02:22;-2.60;92.70
420;DHT22;42600;54.408;13.016;2024-01-16T08:04:49;-2.60;92.70
420;DHT22;42600;54.408;13.016;2024-01-16T08:07:16;-2.60;92.70
420;DHT22;42600;54.408;13.016;2024-01-16T08:09:43;-2.60;92.70
420;DHT22;42600;54.408;13.016;2024-01-16T08:12:09;-2.50;92.70
420;DHT22;42600;54.408;13.016;2024-01-16T08:14:36;-2.40;92.70
420;DHT22;42600;54.408;13.016;2024-01-16T08:17:03;-2.40;92.70
420;DHT22;42600;54.408;13.016;2024-01-16T08:19:29;-2.30;92.70
420;DHT22;42600;54.408;13.016;2024-01-16T08:21:58;-2.30;92.70
420;DHT22;42600;54.408;13.016;2024-01-16T08:24:25;-2.20;92.70
420;DHT22;42600;54.408;13.016;2024-01-16T08:26:52;-2.10;92.70
420;DHT22;42600;54.408;13.016;2024-01-16T08:29:18;-2.00;92.70
420;DHT22;42600;54.408;13.016;2024-01-16T08:31:45;-2.00;92.70
420;DHT22;42600;54.408;13.016;2024-01-16T08:34:12;-1.90;92.70
420;DHT22;42600;54.408;13.016;2024-01-16T08:36:39;-1.90;92.70
420;DHT22;42600;54.408;13.016;2024-01-16T08:39:05;-1.90;92.70
420;DHT22;42600;54.408;13.016;2024-01-16T08:41:33;-1.80;92.70
420;DHT22;42600;54.408;13.016;2024-01-16T08:44:00;-1.70;92.70
420;DHT22;42600;54.408;13.016;2024-01-16T08:46:26;-1.70;92.70
420;DHT22;42600;54.408;13.016;2024-01-16T08:48:53;-1.70;92.70
420;DHT22;42600;54.408;13.016;2024-01-16T08:51:19;-1.60;92.70
420;DHT22;42600;54.408;13.016;2024-01-16T08:53:46;-1.60;92.70
420;DHT22;42600;54.408;13.016;2024-01-16T08:56:13;-1.50;92.70
420;DHT22;42600;54.408;13.016;2024-01-16T08:58:40;-1.40;92.70
420;DHT22;42600;54.408;13.016;2024-01-16T09:01:07;-1.40;92.70
420;DHT22;42600;54.408;13.016;2024-01-16T09:03:35;-1.40;92.70
420;DHT22;42600;54.408;13.016;2024-01-16T09:06:02;-1.40;92.70
420;DHT22;42600;54.408;13.016;2024-01-16T09:08:29;-1.30;92.70
420;DHT22;42600;54.408;13.016;2024-01-16T09:10:56;-1.30;92.70
420;DHT22;42600;54.408;13.016;2024-01-16T09:13:23;-1.30;92.70
420;DHT22;42600;54.408;13.016;2024-01-16T09:15:51;-1.30;92.70
420;DHT22;42600;54.408;13.016;2024-01-16T09:18:17;-1.20;92.70
420;DHT22;42600;54.408;13.016;2024-01-16T09:20:44;-1.20;92.70
420;DHT22;42600;54.408;13.016;2024-01-16T09:23:10;-1.20;92.70
420;DHT22;42600;54.408;13.016;2024-01-16T09:25:38;-1.20;92.70
420;DHT22;42600;54.408;13.016;2024-01-16T09:28:04;-1.20;92.70
420;DHT22;42600;54.408;13.016;2024-01-16T09:30:31;-1.20;92.70
420;DHT22;42600;54.408;13.016;2024-01-16T09:33:00;-1.20;92.70
420;DHT22;42600;54.408;13.016;2024-01-16T09:35:26;-1.20;92.70
420;DHT22;42600;54.408;13.016;2024-01-16T09:37:53;-1.20;92.70
420;DHT22;42600;54.408;13.016;2024-01-16T09:40:20;-1.10;92.70
420;DHT22;42600;54.408;13.016;2024-01-16T09:42:47;-1.10;92.70
420;DHT22;42600;54.408;13.016;2024-01-16T09:45:19;-1.10;92.70
420;DHT22;42600;54.408;13.016;2024-01-16T09:47:47;-1.10;92.70
420;DHT22;42600;54.408;13.016;2024-01-16T09:50:18;-1.10;92.70
420;DHT22;42600;54.408;13.016;2024-01-16T09:52:45;-1.00;92.70
420;DHT22;42600;54.408;13.016;2024-01-16T09:55:12;-1.00;92.70
420;DHT22;42600;54.408;13.016;2024-01-16T09:57:40;-1.00;92.70
420;DHT22;42600;54.408;13.016;2024-01-16T10:00:09;-0.90;92.70
420;DHT22;42600;54.408;13.016;2024-01-16T10:02:38;-0.90;92.70
420;DHT22;42600;54.408;13.016;2024-01-16T10:05:05;-0.80;92.70
420;DHT22;42600;54.408;13.016;2024-01-16T10:07:35;-0.80;92.70
420;DHT22;42600;54.408;13.016;2024-01-16T10:10:03;-0.80;92.70
420;DHT22;42600;54.408;13.016;2024-01-16T10:12:30;-0.80;92.70
420;DHT22;42600;54.408;13.016;2024-01-16T10:14:57;-0.80;92.70
420;DHT22;42600;54.408;13.016;2024-01-16T10:17:35;-0.80;91.80
420;DHT22;42600;54.408;13.016;2024-01-16T10:20:02;-0.80;92.10
420;DHT22;42600;54.408;13.016;2024-01-16T10:22:30;-0.70;92.10
420;DHT22;42600;54.408;13.016;2024-01-16T10:25:08;-0.70;92.40
420;DHT22;42600;54.408;13.016;2024-01-16T10:27:36;-0.60;92.70
420;DHT22;42600;54.408;13.016;2024-01-16T10:30:03;-0.70;92.50
420;DHT22;42600;54.408;13.016;2024-01-16T10:32:33;-0.80;91.30
420;DHT22;42600;54.408;13.016;2024-01-16T10:35:04;-0.80;91.50
420;DHT22;42600;54.408;13.016;2024-01-16T10:37:31;-0.80;91.80
420;DHT22;42600;54.408;13.016;2024-01-16T10:40:08;-0.70;92.70
420;DHT22;42600;54.408;13.016;2024-01-16T10:42:35;-0.60;92.70
420;DHT22;42600;54.408;13.016;2024-01-16T10:45:02;-0.60;92.70
420;DHT22;42600;54.408;13.016;2024-01-16T10:47:29;-0.70;92.30
420;DHT22;42600;54.408;13.016;2024-01-16T10:49:56;-0.70;92.10
420;DHT22;42600;54.408;13.016;2024-01-16T10:52:27;-0.60;92.40
420;DHT22;42600;54.408;13.016;2024-01-16T10:54:57;-0.50;92.70
420;DHT22;42600;54.408;13.016;2024-01-16T10:57:29;-0.60;92.70
420;DHT22;42600;54.408;13.016;2024-01-16T11:00:02;-0.60;92.50
420;DHT22;42600;54.408;13.016;2024-01-16T11:02:33;-0.70;92.00
420;DHT22;42600;54.408;13.016;2024-01-16T11:05:02;-0.80;91.40
420;DHT22;42600;54.408;13.016;2024-01-16T11:07:30;-0.80;91.60
420;DHT22;42600;54.408;13.016;2024-01-16T11:09:57;-0.80;91.80
420;DHT22;42600;54.408;13.016;2024-01-16T11:12:24;-0.90;92.00
420;DHT22;42600;54.408;13.016;2024-01-16T11:14:54;-0.90;92.20
420;DHT22;42600;54.408;13.016;2024-01-16T11:17:22;-1.00;92.50
420;DHT22;42600;54.408;13.016;2024-01-16T11:19:49;-0.90;92.70
420;DHT22;42600;54.408;13.016;2024-01-16T11:22:17;-0.60;92.70
420;DHT22;42600;54.408;13.016;2024-01-16T11:24:44;-0.20;92.70
420;DHT22;42600;54.408;13.016;2024-01-16T11:27:21;0.00;92.70
420;DHT22;42600;54.408;13.016;2024-01-16T11:29:50;0.70;92.70
420;DHT22;42600;54.408;13.016;2024-01-16T11:32:33;0.80;92.70
420;DHT22;42600;54.408;13.016;2024-01-16T11:35:00;1.80;92.70
420;DHT22;42600;54.408;13.016;2024-01-16T11:37:28;2.30;92.70
420;DHT22;42600;54.408;13.016;2024-01-16T11:40:24;2.40;92.70
420;DHT22;42600;54.408;13.016;2024-01-16T11:42:52;1.80;92.70
420;DHT22;42600;54.408;13.016;2024-01-16T11:45:48;1.20;92.50
420;DHT22;42600;54.408;13.016;2024-01-16T11:48:17;0.90;90.20
420;DHT22;42600;54.408;13.016;2024-01-16T11:50:45;0.70;89.10
420;DHT22;42600;54.408;13.016;2024-01-16T11:53:33;0.50;89.40
420;DHT22;42600;54.408;13.016;2024-01-16T11:59:18;0.10;89.90
420;DHT22;42600;54.408;13.016;2024-01-16T12:01:50;0.00;90.10
420;DHT22;42600;54.408;13.016;2024-01-16T12:04:20;-0.20;90.00
420;DHT22;42600;54.408;13.016;2024-01-16T12:06:57;-0.20;90.60
420;DHT22;42600;54.408;13.016;2024-01-16T12:09:26;-0.20;91.30
420;DHT22;42600;54.408;13.016;2024-01-16T12:11:56;-0.30;91.60
420;DHT22;42600;54.408;13.016;2024-01-16T12:14:23;-0.30;91.80
420;DHT22;42600;54.408;13.016;2024-01-16T12:16:50;-0.30;92.30
420;DHT22;42600;54.408;13.016;2024-01-16T12:19:17;-0.30;92.70
420;DHT22;42600;54.408;13.016;2024-01-16T12:21:45;-0.40;92.10
420;DHT22;42600;54.408;13.016;2024-01-16T12:24:11;-0.30;92.70
420;DHT22;42600;54.408;13.016;2024-01-16T12:26:38;-0.50;91.20
420;DHT22;42600;54.408;13.016;2024-01-16T12:29:06;-0.50;91.60
420;DHT22;42600;54.408;13.016;2024-01-16T12:31:33;-0.50;91.90
420;DHT22;42600;54.408;13.016;2024-01-16T12:34:06;-0.40;92.70
420;DHT22;42600;54.408;13.016;2024-01-16T12:36:33;-0.30;92.70
420;DHT22;42600;54.408;13.016;2024-01-16T12:39:00;-0.40;92.70
420;DHT22;42600;54.408;13.016;2024-01-16T12:41:29;-0.40;92.70
420;DHT22;42600;54.408;13.016;2024-01-16T12:43:58;-0.50;92.70
420;DHT22;42600;54.408;13.016;2024-01-16T12:46:25;-0.50;92.70
420;DHT22;42600;54.408;13.016;2024-01-16T12:48:51;-0.60;92.70
420;DHT22;42600;54.408;13.016;2024-01-16T12:51:20;-0.60;92.70
420;DHT22;42600;54.408;13.016;2024-01-16T12:53:47;-0.70;92.70
420;DHT22;42600;54.408;13.016;2024-01-16T12:56:18;-0.70;92.70
420;DHT22;42600;54.408;13.016;2024-01-16T12:58:46;-0.70;92.70
420;DHT22;42600;54.408;13.016;2024-01-16T13:01:22;-0.70;92.70
420;DHT22;42600;54.408;13.016;2024-01-16T13:03:50;-0.70;92.70
420;DHT22;42600;54.408;13.016;2024-01-16T13:06:17;-0.80;92.70
420;DHT22;42600;54.408;13.016;2024-01-16T13:08:45;-0.80;92.70
420;DHT22;42600;54.408;13.016;2024-01-16T13:11:11;-0.70;92.70
420;DHT22;42600;54.408;13.016;2024-01-16T13:13:42;-0.80;92.70
420;DHT22;42600;54.408;13.016;2024-01-16T13:16:08;-0.80;92.70
420;DHT22;42600;54.408;13.016;2024-01-16T13:18:35;-0.80;92.70
420;DHT22;42600;54.408;13.016;2024-01-16T13:21:02;-0.80;92.70
420;DHT22;42600;54.408;13.016;2024-01-16T13:23:29;-0.80;92.70
420;DHT22;42600;54.408;13.016;2024-01-16T13:25:56;-0.80;92.70
420;DHT22;42600;54.408;13.016;2024-01-16T13:28:24;-0.80;92.70
420;DHT22;42600;54.408;13.016;2024-01-16T13:30:53;-0.90;92.70
420;DHT22;42600;54.408;13.016;2024-01-16T13:33:19;-0.90;92.70
420;DHT22;42600;54.408;13.016;2024-01-16T13:35:47;-0.90;92.70
420;DHT22;42600;54.408;13.016;2024-01-16T13:38:14;-0.90;92.70
420;DHT22;42600;54.408;13.016;2024-01-16T13:40:42;-0.90;92.70
420;DHT22;42600;54.408;13.016;2024-01-16T13:43:09;-0.90;92.70
420;DHT22;42600;54.408;13.016;2024-01-16T13:45:36;-0.90;92.70
420;DHT22;42600;54.408;13.016;2024-01-16T13:48:05;-0.90;92.70
420;DHT22;42600;54.408;13.016;2024-01-16T13:50:32;-0.90;92.70
420;DHT22;42600;54.408;13.016;2024-01-16T13:52:59;-0.90;92.70
420;DHT22;42600;54.408;13.016;2024-01-16T13:55:27;-0.90;92.70
420;DHT22;42600;54.408;13.016;2024-01-16T13:57:54;-0.90;92.70
420;DHT22;42600;54.408;13.016;2024-01-16T14:00:20;-0.90;92.70
420;DHT22;42600;54.408;13.016;2024-01-16T14:02:47;-0.90;92.70
420;DHT22;42600;54.408;13.016;2024-01-16T14:05:16;-0.90;92.70
420;DHT22;42600;54.408;13.016;2024-01-16T14:07:43;-0.90;92.70
420;DHT22;42600;54.408;13.016;2024-01-16T14:10:12;-0.90;92.70
420;DHT22;42600;54.408;13.016;2024-01-16T14:12:39;-0.90;92.70
420;DHT22;42600;54.408;13.016;2024-01-16T14:15:08;-0.90;92.70
420;DHT22;42600;54.408;13.016;2024-01-16T14:17:41;-0.90;92.70
420;DHT22;42600;54.408;13.016;2024-01-16T14:20:10;-0.90;92.70
420;DHT22;42600;54.408;13.016;2024-01-16T14:22:42;-0.90;92.70
420;DHT22;42600;54.408;13.016;2024-01-16T14:25:11;-0.90;92.70
420;DHT22;42600;54.408;13.016;2024-01-16T14:27:41;-0.80;92.70
420;DHT22;42600;54.408;13.016;2024-01-16T14:30:12;-0.80;92.70
420;DHT22;42600;54.408;13.016;2024-01-16T14:32:41;-0.80;92.70
420;DHT22;42600;54.408;13.016;2024-01-16T14:35:09;-0.80;92.70
420;DHT22;42600;54.408;13.016;2024-01-16T14:37:37;-0.80;92.70
420;DHT22;42600;54.408;13.016;2024-01-16T14:40:05;-0.80;92.70
420;DHT22;42600;54.408;13.016;2024-01-16T14:42:38;-0.80;92.70
420;DHT22;42600;54.408;13.016;2024-01-16T14:45:06;-0.80;92.70
420;DHT22;42600;54.408;13.016;2024-01-16T14:47:33;-0.80;92.70
420;DHT22;42600;54.408;13.016;2024-01-16T14:50:00;-0.80;92.70
420;DHT22;42600;54.408;13.016;2024-01-16T14:52:29;-0.80;92.70
420;DHT22;42600;54.408;13.016;2024-01-16T14:54:59;-0.80;92.70
420;DHT22;42600;54.408;13.016;2024-01-16T14:57:27;-0.70;92.70
420;DHT22;42600;54.408;13.016;2024-01-16T14:59:56;-0.70;92.70
420;DHT22;42600;54.408;13.016;2024-01-16T15:02:22;-0.70;92.70
420;DHT22;42600;54.408;13.016;2024-01-16T15:04:49;-0.80;92.70
420;DHT22;42600;54.408;13.016;2024-01-16T15:07:15;-0.90;92.70
420;DHT22;42600;54.408;13.016;2024-01-16T15:09:42;-0.90;92.70
420;DHT22;42600;54.408;13.016;2024-01-16T15:12:10;-0.90;92.70
420;DHT22;42600;54.408;13.016;2024-01-16T15:14:38;-1.00;92.70
420;DHT22;42600;54.408;13.016;2024-01-16T15:17:05;-1.00;92.70
420;DHT22;42600;54.408;13.016;2024-01-16T15:19:32;-1.00;92.70
420;DHT22;42600;54.408;13.016;2024-01-16T15:21:59;-1.00;92.70
420;DHT22;42600;54.408;13.016;2024-01-16T15:24:27;-1.00;92.70
420;DHT22;42600;54.408;13.016;2024-01-16T15:26:54;-1.10;92.70
420;DHT22;42600;54.408;13.016;2024-01-16T15:29:23;-1.10;92.70
420;DHT22;42600;54.408;13.016;2024-01-16T15:31:51;-1.10;92.70
420;DHT22;42600;54.408;13.016;2024-01-16T15:34:19;-1.10;92.70
420;DHT22;42600;54.408;13.016;2024-01-16T15:36:46;-1.20;92.70
420;DHT22;42600;54.408;13.016;2024-01-16T15:39:13;-1.20;92.70
420;DHT22;42600;54.408;13.016;2024-01-16T15:41:41;-1.20;92.70
420;DHT22;42600;54.408;13.016;2024-01-16T15:44:08;-1.10;92.70
420;DHT22;42600;54.408;13.016;2024-01-16T15:46:53;-1.10;92.70
420;DHT22;42600;54.408;13.016;2024-01-16T15:49:20;-1.10;92.70
420;DHT22;42600;54.408;13.016;2024-01-16T15:51:46;-1.10;92.70
420;DHT22;42600;54.408;13.016;2024-01-16T15:54:14;-1.10;92.70
420;DHT22;42600;54.408;13.016;2024-01-16T15:56:41;-1.10;92.70
420;DHT22;42600;54.408;13.016;2024-01-16T15:59:10;-1.10;92.70
420;DHT22;42600;54.408;13.016;2024-01-16T16:01:39;-1.10;92.70
420;DHT22;42600;54.408;13.016;2024-01-16T16:04:06;-1.10;92.70
420;DHT22;42600;54.408;13.016;2024-01-16T16:06:34;-1.20;92.70
420;DHT22;42600;54.408;13.016;2024-01-16T16:09:01;-1.20;92.70
420;DHT22;42600;54.408;13.016;2024-01-16T16:11:28;-1.20;92.70
420;DHT22;42600;54.408;13.016;2024-01-16T16:14:18;-1.20;92.70
420;DHT22;42600;54.408;13.016;2024-01-16T16:17:01;-1.20;92.70
420;DHT22;42600;54.408;13.016;2024-01-16T16:19:30;-1.20;92.70
420;DHT22;42600;54.408;13.016;2024-01-16T16:22:12;-1.20;92.70
420;DHT22;42600;54.408;13.016;2024-01-16T16:24:54;-1.20;92.70
420;DHT22;42600;54.408;13.016;2024-01-16T16:27:28;-1.20;92.70
420;DHT22;42600;54.408;13.016;2024-01-16T16:29:56;-1.20;92.70
420;DHT22;42600;54.408;13.016;2024-01-16T16:32:38;-1.20;92.70
420;DHT22;42600;54.408;13.016;2024-01-16T16:35:06;-1.30;92.70
420;DHT22;42600;54.408;13.016;2024-01-16T16:37:47;-1.30;92.70
420;DHT22;42600;54.408;13.016;2024-01-16T16:40:22;-1.30;92.70
420;DHT22;42600;54.408;13.016;2024-01-16T16:42:53;-1.30;92.70
420;DHT22;42600;54.408;13.016;2024-01-16T16:45:34;-1.30;92.70
420;DHT22;42600;54.408;13.016;2024-01-16T16:48:26;-1.20;92.70
420;DHT22;42600;54.408;13.016;2024-01-16T16:50:58;-1.20;92.70
420;DHT22;42600;54.408;13.016;2024-01-16T16:53:25;-1.20;92.70
420;DHT22;42600;54.408;13.016;2024-01-16T16:55:53;-1.10;92.70